sensor_id;sensor_type;location;lat;lon;timestamp;P1;durP1;ratioP1;P2;durP2;ratioP2
79697;SDS011;69168;42.708;23.286;2023-06-05T00:00:29;15.27;;;11.88;;
79697;SDS011;69168;42.708;23.286;2023-06-05T00:02:55;18.35;;;12.05;;
79697;SDS011;69168;42.708;23.286;2023-06-05T00:05:20;15.35;;;11.95;;
79697;SDS011;69168;42.708;23.286;2023-06-05T00:07:46;17.25;;;12.70;;
79697;SDS011;69168;42.708;23.286;2023-06-05T00:10:12;21.98;;;15.48;;
79697;SDS011;69168;42.708;23.286;2023-06-05T00:12:38;18.23;;;14.32;;
79697;SDS011;69168;42.708;23.286;2023-06-05T00:15:04;22.45;;;15.88;;
79697;SDS011;69168;42.708;23.286;2023-06-05T00:17:30;24.70;;;16.42;;
79697;SDS011;69168;42.708;23.286;2023-06-05T00:19:55;19.55;;;12.65;;
79697;SDS011;69168;42.708;23.286;2023-06-05T00:22:23;23.20;;;14.23;;
79697;SDS011;69168;42.708;23.286;2023-06-05T00:24:50;20.45;;;12.75;;
79697;SDS011;69168;42.708;23.286;2023-06-05T00:27:16;18.75;;;13.95;;
79697;SDS011;69168;42.708;23.286;2023-06-05T00:29:41;20.42;;;14.25;;
79697;SDS011;69168;42.708;23.286;2023-06-05T00:32:07;18.77;;;13.68;;
79697;SDS011;69168;42.708;23.286;2023-06-05T00:34:32;19.33;;;14.57;;
79697;SDS011;69168;42.708;23.286;2023-06-05T00:36:58;19.65;;;13.68;;
79697;SDS011;69168;42.708;23.286;2023-06-05T00:39:23;18.60;;;13.15;;
79697;SDS011;69168;42.708;23.286;2023-06-05T00:41:49;20.75;;;13.10;;
79697;SDS011;69168;42.708;23.286;2023-06-05T00:44:14;17.20;;;12.82;;
79697;SDS011;69168;42.708;23.286;2023-06-05T00:46:42;22.05;;;12.80;;
79697;SDS011;69168;42.708;23.286;2023-06-05T00:49:08;16.63;;;11.55;;
79697;SDS011;69168;42.708;23.286;2023-06-05T00:51:34;17.42;;;11.68;;
79697;SDS011;69168;42.708;23.286;2023-06-05T00:54:00;17.55;;;12.00;;
79697;SDS011;69168;42.708;23.286;2023-06-05T00:56:26;22.20;;;11.45;;
79697;SDS011;69168;42.708;23.286;2023-06-05T00:58:52;14.98;;;10.60;;
79697;SDS011;69168;42.708;23.286;2023-06-05T01:01:18;16.40;;;11.00;;
79697;SDS011;69168;42.708;23.286;2023-06-05T01:03:46;13.68;;;10.23;;
79697;SDS011;69168;42.708;23.286;2023-06-05T01:06:12;13.20;;;9.77;;
79697;SDS011;69168;42.708;23.286;2023-06-05T01:08:42;16.25;;;10.57;;
79697;SDS011;69168;42.708;23.286;2023-06-05T01:14:28;16.05;;;9.50;;
79697;SDS011;69168;42.708;23.286;2023-06-05T01:16:57;14.32;;;10.23;;
79697;SDS011;69168;42.708;23.286;2023-06-05T01:19:25;14.15;;;11.00;;
79697;SDS011;69168;42.708;23.286;2023-06-05T01:21:57;14.75;;;9.43;;
79697;SDS011;69168;42.708;23.286;2023-06-05T01:24:23;13.05;;;9.57;;
79697;SDS011;69168;42.708;23.286;2023-06-05T01:32:37;13.73;;;9.75;;
79697;SDS011;69168;42.708;23.286;2023-06-05T01:35:09;14.07;;;9.90;;
79697;SDS011;69168;42.708;23.286;2023-06-05T01:40:27;11.65;;;8.98;;
79697;SDS011;69168;42.708;23.286;2023-06-05T01:42:54;15.07;;;8.88;;
79697;SDS011;69168;42.708;23.286;2023-06-05T01:45:20;14.10;;;9.27;;
79697;SDS011;69168;42.708;23.286;2023-06-05T01:47:46;12.20;;;9.75;;
79697;SDS011;69168;42.708;23.286;2023-06-05T01:50:15;14.07;;;9.70;;
79697;SDS011;69168;42.708;23.286;2023-06-05T01:55:13;19.83;;;12.35;;
79697;SDS011;69168;42.708;23.286;2023-06-05T01:57:43;14.48;;;10.38;;
79697;SDS011;69168;42.708;23.286;2023-06-05T02:00:09;17.58;;;11.27;;
79697;SDS011;69168;42.708;23.286;2023-06-05T02:02:44;14.88;;;9.95;;
79697;SDS011;69168;42.708;23.286;2023-06-05T02:05:11;15.00;;;10.75;;
79697;SDS011;69168;42.708;23.286;2023-06-05T02:07:38;13.10;;;9.48;;
79697;SDS011;69168;42.708;23.286;2023-06-05T02:10:08;13.88;;;10.38;;
79697;SDS011;69168;42.708;23.286;2023-06-05T02:12:34;15.38;;;10.48;;
79697;SDS011;69168;42.708;23.286;2023-06-05T02:15:02;14.50;;;10.52;;
79697;SDS011;69168;42.708;23.286;2023-06-05T02:19:54;14.93;;;10.48;;
79697;SDS011;69168;42.708;23.286;2023-06-05T02:22:19;17.13;;;10.18;;
79697;SDS011;69168;42.708;23.286;2023-06-05T02:24:45;15.50;;;9.82;;
79697;SDS011;69168;42.708;23.286;2023-06-05T02:27:10;16.10;;;10.45;;
79697;SDS011;69168;42.708;23.286;2023-06-05T02:29:37;14.02;;;9.80;;
79697;SDS011;69168;42.708;23.286;2023-06-05T02:32:03;16.42;;;10.93;;
79697;SDS011;69168;42.708;23.286;2023-06-05T02:34:30;15.13;;;9.65;;
79697;SDS011;69168;42.708;23.286;2023-06-05T02:36:57;16.90;;;12.32;;
79697;SDS011;69168;42.708;23.286;2023-06-05T02:39:23;14.48;;;9.32;;
79697;SDS011;69168;42.708;23.286;2023-06-05T02:41:49;16.17;;;10.18;;
79697;SDS011;69168;42.708;23.286;2023-06-05T02:44:14;11.05;;;8.95;;
79697;SDS011;69168;42.708;23.286;2023-06-05T02:46:40;16.48;;;10.45;;
79697;SDS011;69168;42.708;23.286;2023-06-05T02:49:05;11.13;;;9.13;;
79697;SDS011;69168;42.708;23.286;2023-06-05T02:51:31;16.92;;;10.38;;
79697;SDS011;69168;42.708;23.286;2023-06-05T02:53:56;12.98;;;9.13;;
79697;SDS011;69168;42.708;23.286;2023-06-05T02:56:22;14.45;;;9.75;;
79697;SDS011;69168;42.708;23.286;2023-06-05T02:58:51;16.13;;;9.73;;
79697;SDS011;69168;42.708;23.286;2023-06-05T03:01:17;18.50;;;9.88;;
79697;SDS011;69168;42.708;23.286;2023-06-05T03:03:42;15.50;;;9.85;;
79697;SDS011;69168;42.708;23.286;2023-06-05T03:06:08;16.25;;;10.15;;
79697;SDS011;69168;42.708;23.286;2023-06-05T03:08:33;13.65;;;9.45;;
79697;SDS011;69168;42.708;23.286;2023-06-05T03:11:00;16.35;;;9.52;;
79697;SDS011;69168;42.708;23.286;2023-06-05T03:13:26;14.07;;;10.32;;
79697;SDS011;69168;42.708;23.286;2023-06-05T03:15:52;14.00;;;9.63;;
79697;SDS011;69168;42.708;23.286;2023-06-05T03:18:21;15.93;;;10.40;;
79697;SDS011;69168;42.708;23.286;2023-06-05T03:20:48;14.00;;;9.63;;
79697;SDS011;69168;42.708;23.286;2023-06-05T03:23:15;15.60;;;10.45;;
79697;SDS011;69168;42.708;23.286;2023-06-05T03:25:41;19.67;;;10.77;;
79697;SDS011;69168;42.708;23.286;2023-06-05T03:28:07;15.52;;;10.65;;
79697;SDS011;69168;42.708;23.286;2023-06-05T03:30:32;15.57;;;9.88;;
79697;SDS011;69168;42.708;23.286;2023-06-05T03:32:57;14.68;;;10.13;;
79697;SDS011;69168;42.708;23.286;2023-06-05T03:35:23;16.55;;;10.27;;
79697;SDS011;69168;42.708;23.286;2023-06-05T03:37:48;13.82;;;10.80;;
79697;SDS011;69168;42.708;23.286;2023-06-05T03:40:14;18.70;;;11.98;;
79697;SDS011;69168;42.708;23.286;2023-06-05T03:42:39;16.80;;;11.40;;
79697;SDS011;69168;42.708;23.286;2023-06-05T03:45:05;17.60;;;10.48;;
79697;SDS011;69168;42.708;23.286;2023-06-05T03:47:31;15.02;;;11.40;;
79697;SDS011;69168;42.708;23.286;2023-06-05T03:49:59;15.82;;;10.57;;
79697;SDS011;69168;42.708;23.286;2023-06-05T03:52:25;18.00;;;11.10;;
79697;SDS011;69168;42.708;23.286;2023-06-05T03:54:54;16.02;;;10.73;;
79697;SDS011;69168;42.708;23.286;2023-06-05T03:57:21;21.25;;;11.90;;
79697;SDS011;69168;42.708;23.286;2023-06-05T03:59:47;18.67;;;12.50;;
79697;SDS011;69168;42.708;23.286;2023-06-05T04:02:13;16.42;;;11.43;;
79697;SDS011;69168;42.708;23.286;2023-06-05T04:04:39;19.73;;;12.77;;
79697;SDS011;69168;42.708;23.286;2023-06-05T04:07:05;17.17;;;11.60;;
79697;SDS011;69168;42.708;23.286;2023-06-05T04:09:31;19.63;;;13.20;;
79697;SDS011;69168;42.708;23.286;2023-06-05T04:11:57;21.23;;;14.07;;
79697;SDS011;69168;42.708;23.286;2023-06-05T04:14:22;20.70;;;12.88;;
79697;SDS011;69168;42.708;23.286;2023-06-05T04:16:48;22.27;;;13.52;;
79697;SDS011;69168;42.708;23.286;2023-06-05T04:19:14;20.75;;;13.15;;
79697;SDS011;69168;42.708;23.286;2023-06-05T04:21:40;24.55;;;14.15;;
79697;SDS011;69168;42.708;23.286;2023-06-05T04:24:06;16.33;;;12.07;;
79697;SDS011;69168;42.708;23.286;2023-06-05T04:26:35;18.17;;;13.48;;
79697;SDS011;69168;42.708;23.286;2023-06-05T04:29:02;22.40;;;14.15;;
79697;SDS011;69168;42.708;23.286;2023-06-05T04:33:57;19.67;;;12.48;;
79697;SDS011;69168;42.708;23.286;2023-06-05T04:36:23;20.17;;;12.75;;
79697;SDS011;69168;42.708;23.286;2023-06-05T04:41:15;19.57;;;12.93;;
79697;SDS011;69168;42.708;23.286;2023-06-05T04:43:40;18.55;;;12.75;;
79697;SDS011;69168;42.708;23.286;2023-06-05T04:46:06;23.50;;;13.32;;
79697;SDS011;69168;42.708;23.286;2023-06-05T04:48:31;25.00;;;13.90;;
79697;SDS011;69168;42.708;23.286;2023-06-05T04:50:59;23.27;;;14.25;;
79697;SDS011;69168;42.708;23.286;2023-06-05T04:53:25;36.00;;;21.92;;
79697;SDS011;69168;42.708;23.286;2023-06-05T04:55:53;31.00;;;20.02;;
79697;SDS011;69168;42.708;23.286;2023-06-05T04:58:20;25.70;;;16.33;;
79697;SDS011;69168;42.708;23.286;2023-06-05T05:00:47;23.08;;;15.05;;
79697;SDS011;69168;42.708;23.286;2023-06-05T05:03:14;23.85;;;16.52;;
79697;SDS011;69168;42.708;23.286;2023-06-05T05:05:41;22.08;;;14.23;;
79697;SDS011;69168;42.708;23.286;2023-06-05T05:08:06;22.98;;;16.00;;
79697;SDS011;69168;42.708;23.286;2023-06-05T05:10:32;24.25;;;15.65;;
79697;SDS011;69168;42.708;23.286;2023-06-05T05:12:57;22.08;;;14.60;;
79697;SDS011;69168;42.708;23.286;2023-06-05T05:15:26;22.65;;;15.10;;
79697;SDS011;69168;42.708;23.286;2023-06-05T05:17:55;20.55;;;13.55;;
79697;SDS011;69168;42.708;23.286;2023-06-05T05:20:21;28.50;;;17.25;;
79697;SDS011;69168;42.708;23.286;2023-06-05T05:22:47;24.35;;;16.52;;
79697;SDS011;69168;42.708;23.286;2023-06-05T05:25:15;26.63;;;16.13;;
79697;SDS011;69168;42.708;23.286;2023-06-05T05:27:41;28.80;;;17.25;;
79697;SDS011;69168;42.708;23.286;2023-06-05T05:30:07;27.42;;;17.25;;
79697;SDS011;69168;42.708;23.286;2023-06-05T05:32:36;32.20;;;16.55;;
79697;SDS011;69168;42.708;23.286;2023-06-05T05:35:01;29.27;;;17.60;;
79697;SDS011;69168;42.708;23.286;2023-06-05T05:37:27;29.30;;;17.95;;
79697;SDS011;69168;42.708;23.286;2023-06-05T05:39:52;26.27;;;16.02;;
79697;SDS011;69168;42.708;23.286;2023-06-05T05:42:18;22.40;;;15.60;;
79697;SDS011;69168;42.708;23.286;2023-06-05T05:44:43;20.73;;;14.27;;
79697;SDS011;69168;42.708;23.286;2023-06-05T05:47:09;21.55;;;13.30;;
79697;SDS011;69168;42.708;23.286;2023-06-05T05:49:36;19.05;;;11.93;;
79697;SDS011;69168;42.708;23.286;2023-06-05T05:52:02;21.35;;;13.68;;
79697;SDS011;69168;42.708;23.286;2023-06-05T05:54:27;23.83;;;12.90;;
79697;SDS011;69168;42.708;23.286;2023-06-05T05:56:53;21.25;;;13.50;;
79697;SDS011;69168;42.708;23.286;2023-06-05T05:59:19;22.50;;;13.60;;
79697;SDS011;69168;42.708;23.286;2023-06-05T06:01:45;19.58;;;14.02;;
79697;SDS011;69168;42.708;23.286;2023-06-05T06:04:11;24.63;;;14.90;;
79697;SDS011;69168;42.708;23.286;2023-06-05T06:06:37;17.88;;;12.90;;
79697;SDS011;69168;42.708;23.286;2023-06-05T06:09:05;20.15;;;13.57;;
79697;SDS011;69168;42.708;23.286;2023-06-05T06:11:33;20.13;;;12.75;;
79697;SDS011;69168;42.708;23.286;2023-06-05T06:13:59;16.92;;;13.10;;
79697;SDS011;69168;42.708;23.286;2023-06-05T06:16:24;24.00;;;15.20;;
79697;SDS011;69168;42.708;23.286;2023-06-05T06:18:50;21.00;;;13.70;;
79697;SDS011;69168;42.708;23.286;2023-06-05T06:21:16;21.35;;;12.50;;
79697;SDS011;69168;42.708;23.286;2023-06-05T06:23:43;21.55;;;13.05;;
79697;SDS011;69168;42.708;23.286;2023-06-05T06:26:10;19.42;;;13.30;;
79697;SDS011;69168;42.708;23.286;2023-06-05T06:28:37;18.00;;;11.25;;
79697;SDS011;69168;42.708;23.286;2023-06-05T06:31:02;15.65;;;11.63;;
79697;SDS011;69168;42.708;23.286;2023-06-05T06:33:28;16.58;;;10.88;;
79697;SDS011;69168;42.708;23.286;2023-06-05T06:35:54;14.40;;;10.75;;
79697;SDS011;69168;42.708;23.286;2023-06-05T06:38:23;18.35;;;12.07;;
79697;SDS011;69168;42.708;23.286;2023-06-05T06:40:55;17.60;;;11.93;;
79697;SDS011;69168;42.708;23.286;2023-06-05T06:43:20;14.55;;;10.70;;
79697;SDS011;69168;42.708;23.286;2023-06-05T06:48:31;18.10;;;10.93;;
79697;SDS011;69168;42.708;23.286;2023-06-05T06:50:57;18.70;;;10.68;;
79697;SDS011;69168;42.708;23.286;2023-06-05T06:53:23;16.52;;;11.35;;
79697;SDS011;69168;42.708;23.286;2023-06-05T06:55:48;16.73;;;11.02;;
79697;SDS011;69168;42.708;23.286;2023-06-05T06:58:14;16.92;;;11.43;;
79697;SDS011;69168;42.708;23.286;2023-06-05T07:00:39;14.43;;;10.38;;
79697;SDS011;69168;42.708;23.286;2023-06-05T07:03:06;17.17;;;10.73;;
79697;SDS011;69168;42.708;23.286;2023-06-05T07:05:31;14.75;;;10.48;;
79697;SDS011;69168;42.708;23.286;2023-06-05T07:07:56;17.10;;;11.00;;
79697;SDS011;69168;42.708;23.286;2023-06-05T07:10:26;16.13;;;10.68;;
79697;SDS011;69168;42.708;23.286;2023-06-05T07:15:17;18.43;;;12.03;;
79697;SDS011;69168;42.708;23.286;2023-06-05T07:17:43;21.63;;;13.15;;
79697;SDS011;69168;42.708;23.286;2023-06-05T07:20:08;21.23;;;15.43;;
79697;SDS011;69168;42.708;23.286;2023-06-05T07:22:34;23.25;;;16.85;;
79697;SDS011;69168;42.708;23.286;2023-06-05T07:25:00;20.13;;;11.95;;
79697;SDS011;69168;42.708;23.286;2023-06-05T07:29:53;19.10;;;12.05;;
79697;SDS011;69168;42.708;23.286;2023-06-05T07:32:19;19.58;;;13.30;;
79697;SDS011;69168;42.708;23.286;2023-06-05T07:34:45;23.70;;;13.18;;
79697;SDS011;69168;42.708;23.286;2023-06-05T07:37:11;20.00;;;13.65;;
79697;SDS011;69168;42.708;23.286;2023-06-05T07:39:37;20.45;;;14.05;;
79697;SDS011;69168;42.708;23.286;2023-06-05T07:42:02;19.27;;;12.55;;
79697;SDS011;69168;42.708;23.286;2023-06-05T07:44:28;21.58;;;13.25;;
79697;SDS011;69168;42.708;23.286;2023-06-05T07:46:53;24.27;;;14.68;;
79697;SDS011;69168;42.708;23.286;2023-06-05T07:49:19;19.33;;;12.55;;
79697;SDS011;69168;42.708;23.286;2023-06-05T07:51:45;20.40;;;12.60;;
79697;SDS011;69168;42.708;23.286;2023-06-05T07:54:13;20.52;;;13.30;;
79697;SDS011;69168;42.708;23.286;2023-06-05T07:56:40;19.80;;;11.60;;
79697;SDS011;69168;42.708;23.286;2023-06-05T07:59:06;23.35;;;15.93;;
79697;SDS011;69168;42.708;23.286;2023-06-05T08:01:33;18.45;;;11.05;;
79697;SDS011;69168;42.708;23.286;2023-06-05T08:04:02;20.60;;;13.13;;
79697;SDS011;69168;42.708;23.286;2023-06-05T08:06:29;19.70;;;11.98;;
79697;SDS011;69168;42.708;23.286;2023-06-05T08:08:55;20.60;;;14.55;;
79697;SDS011;69168;42.708;23.286;2023-06-05T08:11:21;24.27;;;14.70;;
79697;SDS011;69168;42.708;23.286;2023-06-05T08:13:46;22.02;;;13.90;;
79697;SDS011;69168;42.708;23.286;2023-06-05T08:16:12;23.45;;;14.70;;
79697;SDS011;69168;42.708;23.286;2023-06-05T08:18:37;27.20;;;17.75;;
79697;SDS011;69168;42.708;23.286;2023-06-05T08:21:03;20.52;;;13.27;;
79697;SDS011;69168;42.708;23.286;2023-06-05T08:23:29;22.27;;;13.75;;
79697;SDS011;69168;42.708;23.286;2023-06-05T08:25:55;16.83;;;12.00;;
79697;SDS011;69168;42.708;23.286;2023-06-05T08:28:20;18.73;;;12.80;;
79697;SDS011;69168;42.708;23.286;2023-06-05T08:30:46;15.98;;;11.95;;
79697;SDS011;69168;42.708;23.286;2023-06-05T08:33:12;22.88;;;13.38;;
79697;SDS011;69168;42.708;23.286;2023-06-05T08:35:41;20.17;;;13.13;;
79697;SDS011;69168;42.708;23.286;2023-06-05T08:38:06;18.30;;;11.85;;
79697;SDS011;69168;42.708;23.286;2023-06-05T08:40:32;19.70;;;12.77;;
79697;SDS011;69168;42.708;23.286;2023-06-05T08:45:27;19.45;;;11.45;;
79697;SDS011;69168;42.708;23.286;2023-06-05T08:47:53;14.68;;;11.00;;
79697;SDS011;69168;42.708;23.286;2023-06-05T08:50:19;16.60;;;11.38;;
79697;SDS011;69168;42.708;23.286;2023-06-05T08:52:45;18.67;;;11.93;;
79697;SDS011;69168;42.708;23.286;2023-06-05T08:55:13;19.20;;;11.48;;
79697;SDS011;69168;42.708;23.286;2023-06-05T08:57:40;17.95;;;11.00;;
79697;SDS011;69168;42.708;23.286;2023-06-05T09:00:09;18.05;;;11.32;;
79697;SDS011;69168;42.708;23.286;2023-06-05T09:05:02;20.38;;;12.52;;
79697;SDS011;69168;42.708;23.286;2023-06-05T09:07:32;17.98;;;11.35;;
79697;SDS011;69168;42.708;23.286;2023-06-05T09:09:58;15.27;;;11.02;;
79697;SDS011;69168;42.708;23.286;2023-06-05T09:12:23;18.23;;;10.55;;
79697;SDS011;69168;42.708;23.286;2023-06-05T09:14:50;16.80;;;12.07;;
79697;SDS011;69168;42.708;23.286;2023-06-05T09:17:18;15.95;;;11.45;;
79697;SDS011;69168;42.708;23.286;2023-06-05T09:19:46;15.55;;;10.05;;
79697;SDS011;69168;42.708;23.286;2023-06-05T09:22:12;15.35;;;10.05;;
79697;SDS011;69168;42.708;23.286;2023-06-05T09:24:39;17.05;;;11.40;;
79697;SDS011;69168;42.708;23.286;2023-06-05T09:29:41;14.57;;;10.15;;
79697;SDS011;69168;42.708;23.286;2023-06-05T09:34:40;17.17;;;10.60;;
79697;SDS011;69168;42.708;23.286;2023-06-05T09:37:07;15.10;;;9.25;;
79697;SDS011;69168;42.708;23.286;2023-06-05T09:39:34;13.02;;;10.00;;
79697;SDS011;69168;42.708;23.286;2023-06-05T09:42:01;15.70;;;10.40;;
79697;SDS011;69168;42.708;23.286;2023-06-05T09:44:28;14.27;;;9.60;;
79697;SDS011;69168;42.708;23.286;2023-06-05T09:46:58;13.30;;;9.57;;
79697;SDS011;69168;42.708;23.286;2023-06-05T09:49:24;13.98;;;8.50;;
79697;SDS011;69168;42.708;23.286;2023-06-05T09:51:51;11.18;;;8.75;;
79697;SDS011;69168;42.708;23.286;2023-06-05T09:54:17;13.43;;;8.80;;
79697;SDS011;69168;42.708;23.286;2023-06-05T09:56:46;11.63;;;8.35;;
79697;SDS011;69168;42.708;23.286;2023-06-05T09:59:21;10.93;;;8.70;;
79697;SDS011;69168;42.708;23.286;2023-06-05T10:01:51;16.40;;;8.90;;
79697;SDS011;69168;42.708;23.286;2023-06-05T10:04:22;13.23;;;8.13;;
79697;SDS011;69168;42.708;23.286;2023-06-05T10:06:49;11.60;;;8.07;;
79697;SDS011;69168;42.708;23.286;2023-06-05T10:09:17;12.07;;;9.02;;
79697;SDS011;69168;42.708;23.286;2023-06-05T10:11:42;11.80;;;8.63;;
79697;SDS011;69168;42.708;23.286;2023-06-05T10:14:12;10.40;;;7.70;;
79697;SDS011;69168;42.708;23.286;2023-06-05T10:16:38;10.40;;;7.75;;
79697;SDS011;69168;42.708;23.286;2023-06-05T10:19:05;12.02;;;7.15;;
79697;SDS011;69168;42.708;23.286;2023-06-05T10:21:31;14.07;;;7.43;;
79697;SDS011;69168;42.708;23.286;2023-06-05T10:23:58;13.05;;;8.25;;
79697;SDS011;69168;42.708;23.286;2023-06-05T10:38:12;11.82;;;7.65;;
79697;SDS011;69168;42.708;23.286;2023-06-05T10:40:46;11.43;;;7.60;;
79697;SDS011;69168;42.708;23.286;2023-06-05T10:43:26;11.63;;;8.27;;
79697;SDS011;69168;42.708;23.286;2023-06-05T10:45:56;10.55;;;7.72;;
79697;SDS011;69168;42.708;23.286;2023-06-05T10:51:33;11.68;;;7.28;;
79697;SDS011;69168;42.708;23.286;2023-06-05T10:54:02;12.95;;;8.15;;
79697;SDS011;69168;42.708;23.286;2023-06-05T10:59:20;11.23;;;8.30;;
79697;SDS011;69168;42.708;23.286;2023-06-05T11:07:28;8.95;;;6.97;;
79697;SDS011;69168;42.708;23.286;2023-06-05T11:15:04;10.63;;;6.97;;
79697;SDS011;69168;42.708;23.286;2023-06-05T11:17:31;8.85;;;6.53;;
79697;SDS011;69168;42.708;23.286;2023-06-05T11:20:02;13.10;;;7.00;;
79697;SDS011;69168;42.708;23.286;2023-06-05T11:23:20;8.50;;;6.00;;
79697;SDS011;69168;42.708;23.286;2023-06-05T11:30:21;8.98;;;6.78;;
79697;SDS011;69168;42.708;23.286;2023-06-05T11:32:49;9.45;;;6.18;;
79697;SDS011;69168;42.708;23.286;2023-06-05T11:35:23;9.38;;;7.43;;
79697;SDS011;69168;42.708;23.286;2023-06-05T11:38:14;7.63;;;6.03;;
79697;SDS011;69168;42.708;23.286;2023-06-05T11:40:38;10.63;;;6.53;;
79697;SDS011;69168;42.708;23.286;2023-06-05T11:43:06;8.63;;;6.47;;
79697;SDS011;69168;42.708;23.286;2023-06-05T11:45:36;5.80;;;5.18;;
79697;SDS011;69168;42.708;23.286;2023-06-05T11:48:04;8.60;;;6.47;;
79697;SDS011;69168;42.708;23.286;2023-06-05T11:50:33;8.93;;;5.63;;
79697;SDS011;69168;42.708;23.286;2023-06-05T11:53:09;6.70;;;5.32;;
79697;SDS011;69168;42.708;23.286;2023-06-05T11:55:36;8.45;;;5.03;;
79697;SDS011;69168;42.708;23.286;2023-06-05T12:01:06;8.02;;;5.78;;
79697;SDS011;69168;42.708;23.286;2023-06-05T12:03:32;9.00;;;6.30;;
79697;SDS011;69168;42.708;23.286;2023-06-05T12:05:58;5.90;;;5.13;;
79697;SDS011;69168;42.708;23.286;2023-06-05T12:08:27;6.03;;;5.43;;
79697;SDS011;69168;42.708;23.286;2023-06-05T12:10:55;8.00;;;6.25;;
79697;SDS011;69168;42.708;23.286;2023-06-05T12:16:35;6.05;;;4.68;;
79697;SDS011;69168;42.708;23.286;2023-06-05T12:19:14;7.00;;;5.80;;
79697;SDS011;69168;42.708;23.286;2023-06-05T12:21:40;8.35;;;6.43;;
79697;SDS011;69168;42.708;23.286;2023-06-05T12:24:06;6.63;;;4.70;;
79697;SDS011;69168;42.708;23.286;2023-06-05T12:29:18;5.18;;;4.43;;
79697;SDS011;69168;42.708;23.286;2023-06-05T12:31:47;6.18;;;5.20;;
79697;SDS011;69168;42.708;23.286;2023-06-05T12:34:12;6.18;;;5.18;;
79697;SDS011;69168;42.708;23.286;2023-06-05T12:36:40;6.78;;;5.10;;
79697;SDS011;69168;42.708;23.286;2023-06-05T12:39:06;9.55;;;5.72;;
79697;SDS011;69168;42.708;23.286;2023-06-05T12:41:32;9.40;;;5.15;;
79697;SDS011;69168;42.708;23.286;2023-06-05T12:44:01;8.05;;;6.78;;
79697;SDS011;69168;42.708;23.286;2023-06-05T12:46:29;9.73;;;7.25;;
79697;SDS011;69168;42.708;23.286;2023-06-05T12:48:58;8.77;;;5.97;;
79697;SDS011;69168;42.708;23.286;2023-06-05T12:51:25;12.40;;;6.50;;
79697;SDS011;69168;42.708;23.286;2023-06-05T12:53:54;7.55;;;5.75;;
79697;SDS011;69168;42.708;23.286;2023-06-05T12:56:23;5.63;;;5.03;;
79697;SDS011;69168;42.708;23.286;2023-06-05T12:58:54;6.85;;;5.13;;
79697;SDS011;69168;42.708;23.286;2023-06-05T13:01:21;8.32;;;4.97;;
79697;SDS011;69168;42.708;23.286;2023-06-05T13:03:47;6.40;;;5.38;;
79697;SDS011;69168;42.708;23.286;2023-06-05T13:06:13;6.60;;;4.47;;
79697;SDS011;69168;42.708;23.286;2023-06-05T13:08:38;8.05;;;4.70;;
79697;SDS011;69168;42.708;23.286;2023-06-05T13:13:29;9.10;;;4.65;;
79697;SDS011;69168;42.708;23.286;2023-06-05T13:15:55;6.10;;;5.35;;
79697;SDS011;69168;42.708;23.286;2023-06-05T13:20:46;6.87;;;5.17;;
79697;SDS011;69168;42.708;23.286;2023-06-05T13:23:11;5.35;;;4.28;;
79697;SDS011;69168;42.708;23.286;2023-06-05T13:25:38;5.80;;;4.65;;
79697;SDS011;69168;42.708;23.286;2023-06-05T13:28:05;6.43;;;4.00;;
79697;SDS011;69168;42.708;23.286;2023-06-05T13:30:31;6.22;;;4.70;;
79697;SDS011;69168;42.708;23.286;2023-06-05T13:32:57;4.85;;;3.92;;
79697;SDS011;69168;42.708;23.286;2023-06-05T13:35:23;5.40;;;4.35;;
79697;SDS011;69168;42.708;23.286;2023-06-05T13:37:48;6.18;;;4.68;;
79697;SDS011;69168;42.708;23.286;2023-06-05T13:40:15;5.75;;;4.85;;
79697;SDS011;69168;42.708;23.286;2023-06-05T13:42:41;7.65;;;4.72;;
79697;SDS011;69168;42.708;23.286;2023-06-05T13:45:07;5.93;;;4.38;;
79697;SDS011;69168;42.708;23.286;2023-06-05T13:47:33;5.75;;;4.80;;
79697;SDS011;69168;42.708;23.286;2023-06-05T13:49:58;5.95;;;4.85;;
79697;SDS011;69168;42.708;23.286;2023-06-05T13:52:24;5.28;;;4.55;;
79697;SDS011;69168;42.708;23.286;2023-06-05T13:54:50;6.65;;;5.10;;
79697;SDS011;69168;42.708;23.286;2023-06-05T13:57:15;7.78;;;5.25;;
79697;SDS011;69168;42.708;23.286;2023-06-05T13:59:42;7.07;;;5.05;;
79697;SDS011;69168;42.708;23.286;2023-06-05T14:02:10;5.80;;;4.78;;
79697;SDS011;69168;42.708;23.286;2023-06-05T14:04:36;6.30;;;5.10;;
79697;SDS011;69168;42.708;23.286;2023-06-05T14:07:01;6.80;;;5.78;;
79697;SDS011;69168;42.708;23.286;2023-06-05T14:09:28;8.73;;;4.80;;
79697;SDS011;69168;42.708;23.286;2023-06-05T14:11:53;7.82;;;5.32;;
79697;SDS011;69168;42.708;23.286;2023-06-05T14:14:19;5.47;;;4.90;;
79697;SDS011;69168;42.708;23.286;2023-06-05T14:16:44;5.50;;;4.65;;
79697;SDS011;69168;42.708;23.286;2023-06-05T14:19:10;6.65;;;4.10;;
79697;SDS011;69168;42.708;23.286;2023-06-05T14:21:35;5.70;;;4.28;;
79697;SDS011;69168;42.708;23.286;2023-06-05T14:24:03;7.07;;;5.30;;
79697;SDS011;69168;42.708;23.286;2023-06-05T14:26:29;5.45;;;4.28;;
79697;SDS011;69168;42.708;23.286;2023-06-05T14:28:54;6.18;;;4.40;;
79697;SDS011;69168;42.708;23.286;2023-06-05T14:31:20;7.68;;;4.50;;
79697;SDS011;69168;42.708;23.286;2023-06-05T14:33:50;6.65;;;4.22;;
79697;SDS011;69168;42.708;23.286;2023-06-05T14:36:15;7.80;;;4.35;;
79697;SDS011;69168;42.708;23.286;2023-06-05T14:38:41;7.78;;;4.53;;
79697;SDS011;69168;42.708;23.286;2023-06-05T14:41:06;5.57;;;4.97;;
79697;SDS011;69168;42.708;23.286;2023-06-05T14:43:32;8.35;;;5.10;;
79697;SDS011;69168;42.708;23.286;2023-06-05T14:45:57;7.90;;;4.40;;
79697;SDS011;69168;42.708;23.286;2023-06-05T14:48:25;5.88;;;5.28;;
79697;SDS011;69168;42.708;23.286;2023-06-05T14:50:51;4.45;;;4.03;;
79697;SDS011;69168;42.708;23.286;2023-06-05T14:53:17;7.15;;;4.60;;
79697;SDS011;69168;42.708;23.286;2023-06-05T14:55:43;6.70;;;5.22;;
79697;SDS011;69168;42.708;23.286;2023-06-05T14:58:09;6.70;;;6.00;;
79697;SDS011;69168;42.708;23.286;2023-06-05T15:00:35;5.00;;;4.45;;
79697;SDS011;69168;42.708;23.286;2023-06-05T15:05:27;5.75;;;4.88;;
79697;SDS011;69168;42.708;23.286;2023-06-05T15:07:52;7.00;;;4.97;;
79697;SDS011;69168;42.708;23.286;2023-06-05T15:10:18;10.02;;;5.10;;
79697;SDS011;69168;42.708;23.286;2023-06-05T15:12:43;6.35;;;5.38;;
79697;SDS011;69168;42.708;23.286;2023-06-05T15:15:09;6.55;;;5.32;;
79697;SDS011;69168;42.708;23.286;2023-06-05T15:17:35;7.97;;;4.80;;
79697;SDS011;69168;42.708;23.286;2023-06-05T15:20:00;5.22;;;4.72;;
79697;SDS011;69168;42.708;23.286;2023-06-05T15:22:29;6.18;;;4.15;;
79697;SDS011;69168;42.708;23.286;2023-06-05T15:24:55;5.20;;;4.70;;
79697;SDS011;69168;42.708;23.286;2023-06-05T15:27:20;8.97;;;4.73;;
79697;SDS011;69168;42.708;23.286;2023-06-05T15:29:46;6.35;;;5.07;;
79697;SDS011;69168;42.708;23.286;2023-06-05T15:32:11;5.97;;;4.85;;
79697;SDS011;69168;42.708;23.286;2023-06-05T15:34:40;8.32;;;5.00;;
79697;SDS011;69168;42.708;23.286;2023-06-05T15:37:06;7.50;;;5.07;;
79697;SDS011;69168;42.708;23.286;2023-06-05T15:41:57;9.05;;;5.80;;
79697;SDS011;69168;42.708;23.286;2023-06-05T15:44:23;8.05;;;5.60;;
79697;SDS011;69168;42.708;23.286;2023-06-05T15:46:48;6.05;;;5.40;;